• Join FlightAware (Why Join?)
  • Login
  • US Flag 
05:37AM EDT


 

Airport Tracker/Info


-or-


 

Live Flight TrackerFlight Track Log ✈ UCA4772 ✈ 20-Jul-2014 ✈ KSYR - KIAD

Flight Track Log - Related Links

Times and Time Zones

All times are in EDT time to prevent confusion due to time zone crossing. See the UCA4772 flight status page for this flight to view local times or setup timezone preferences in your user account.

Time Position Orientation Groundspeed Altitude Reporting Facility
EDT Latitude Longitude Course Direction KTS MPH feet Rate Location/Type
05:42AM 43.1092 -76.0986 190° South 112 129 1,000  Level Boston Center
05:43AM 43.0825 -76.1050 190° South 153 176 1,900 960 Climbing Boston Center
05:44AM 43.0569 -76.1669 241° Southwest 199 229 3,100 1,080 Climbing Boston Center
05:45AM 43.0289 -76.2308 239° Southwest 197 227 4,200 1,020 Climbing Boston Center
05:46AM 43.0128 -76.2639 236° Southwest 233 268 4,700 1,080 Climbing Boston Center
05:47AM 42.9814 -76.3331 238° Southwest 215 247 5,800 1,200 Climbing Boston Center
05:48AM 42.9247 -76.3503 193° South 212 244 7,100 1,260 Climbing Boston Center
05:49AM 42.8667 -76.3642 190° South 212 244 8,400 1,260 Climbing Boston Center
05:50AM 42.8089 -76.3783 190° South 212 244 9,700 1,260 Climbing Boston Center
05:51AM 42.7503 -76.3939 191° South 212 244 11,000 1,260 Climbing Boston Center
05:52AM 42.6925 -76.4094 191° South 212 244 12,200 1,200 Climbing Boston Center
05:53AM 42.6350 -76.4250 191° South 212 244 13,400 1,140 Climbing Boston Center
05:54AM 42.5775 -76.4394 190° South 212 244 14,600 1,140 Climbing Boston Center
05:55AM 42.5206 -76.4536 190° South 210 242 15,700 660 Climbing Boston Center
05:56AM 42.4603 -76.4683 190° South 216 249 16,000 480 Climbing Boston Center
05:57AM 42.3919 -76.4858 191° South 244 281 16,700 780 Climbing Boston Center
05:58AM 42.3306 -76.5019 191° South 231 266 17,700 600 Climbing Boston Center
05:59AM 42.2706 -76.5172 191° South 219 252 18,000 120 Climbing Boston Center
06:00AM 42.2069 -76.5325 190° South 242 278 18,000  Level Boston Center
06:01AM 42.1364 -76.5514 191° South 256 295 18,000  Level Boston Center
06:02AM 42.0597 -76.5725 192° South 260 299 18,000  Level Boston Center
06:03AM 41.9944 -76.5900 191° South 264 304 18,000  Level Boston Center
06:04AM 41.9217 -76.6039 188° South 263 303 18,000  Level Boston Center
06:05AM 41.8478 -76.6264 193° South 259 298 18,000  Level New York Center
06:06AM 41.7761 -76.6425 190° South 259 298 18,000  Level New York Center
06:07AM 41.6961 -76.6603 189° South 259 298 18,000  Level New York Center
06:08AM 41.6244 -76.6789 191° South 259 298 18,000  Level New York Center
06:09AM 41.5608 -76.6983 193° South 259 298 18,000  Level New York Center
06:10AM 41.4911 -76.7172 191° South 259 298 18,000  Level New York Center
06:11AM 41.4219 -76.7303 188° South 259 298 18,000  Level New York Center
06:12AM 41.3414 -76.7536 192° South 259 298 18,000  Level New York Center
06:13AM 41.2719 -76.7694 190° South 259 298 18,000 -60 Level New York Center
06:14AM 41.2003 -76.7853 189° South 259 298 17,900 -300 Descending New York Center
06:15AM 41.1264 -76.8036 191° South 259 298 17,500 -540 Descending New York Center
06:16AM 41.0525 -76.8244 192° South 259 298 16,900 -600 Descending New York Center
06:17AM 40.9744 -76.8422 190° South 270 311 16,300 -480 Descending New York Center
06:18AM 40.8986 -76.8603 190° South 275 316 16,000 -180 Descending New York Center
06:19AM 40.8311 -76.8761 190° South 275 316 16,000  Level New York Center
06:20AM 40.7528 -76.8967 191° South 275 316 16,000  Level New York Center
06:21AM 40.6831 -76.9178 193° South 269 310 16,000  Level New York Center
06:22AM 40.6131 -76.9417 195° South 264 304 16,000  Level New York Center
06:23AM 40.5389 -76.9650 193° South 264 304 16,000  Level New York Center
06:24AM 40.4689 -76.9858 193° South 264 304 16,000 -540 Level New York Center
06:25AM 40.3967 -77.0094 194° South 269 310 15,000 -900 Descending New York Center
06:26AM 40.3183 -77.0322 193° South 282 325 14,300 -840 Descending New York Center
06:27AM 40.2381 -77.0550 192° South 292 336 13,400 -840 Descending New York Center
06:28AM 40.1617 -77.0781 193° South 292 336 12,700 -780 Descending New York Center
06:30AM 40.0167 -77.1167 192° South 269 310 11,200 -720 Descending Potomac TRACON
06:31AM 39.9333 -77.1500 197° South 273 314 10,600 -720 Descending Potomac TRACON
06:32AM 39.8500 -77.1667 189° South 278 320 9,800 -840 Descending Potomac TRACON
06:33AM 39.7833 -77.2000 201° Southwest 281 323 9,000 -900 Descending Potomac TRACON
06:34AM 39.7167 -77.2167 191° South 279 321 8,200 -960 Descending Potomac TRACON
06:35AM 39.6500 -77.2500 201° Southwest 273 314 7,200 -900 Descending Potomac TRACON
06:36AM 39.6000 -77.3000 218° Southwest 268 308 6,500 -900 Descending Potomac TRACON
06:37AM 39.5333 -77.3500 210° Southwest 267 307 5,600 -900 Descending Potomac TRACON
06:38AM 39.4667 -77.4000 210° Southwest 265 305 4,700 -840 Descending Potomac TRACON
06:39AM 39.4000 -77.4333 201° Southwest 262 302 4,000 -660 Descending Potomac TRACON
06:40AM 39.3333 -77.4333 180° South 260 299 3,400 -540 Descending Potomac TRACON
06:41AM 39.2667 -77.4333 180° South 256 295 3,000 -240 Descending Potomac TRACON
06:42AM 39.2000 -77.4333 180° South 247 284 3,000  Level Potomac TRACON
06:43AM 39.1333 -77.4333 180° South 245 282 3,000 -300 Level Potomac TRACON
06:43AM 39.0667 -77.4333 180° South 238 274 2,500 -900 Descending Potomac TRACON
06:45AM 39.0167 -77.4333 180° South 191 220 1,300 -900 Descending Potomac TRACON
06:45AM 38.9833 -77.4333 180° South 124 143 700 -720 Descending Potomac TRACON
06:47AM 38.9474 -77.4599 128° Southeast  Level Estimated
06:54AM 38.9474 -77.4599 349° North  Level Estimated
06:55AM 38.9474 -77.4599 349° North  Level Estimated